sensor_id;sensor_type;location;lat;lon;timestamp;temperature;humidity
19972;DHT22;10147;16.402;102.848;2023-05-07T00:00:50;31.70;99.90
19972;DHT22;10147;16.402;102.848;2023-05-07T00:03:20;31.80;99.90
19972;DHT22;10147;16.402;102.848;2023-05-07T00:05:50;31.80;99.90
19972;DHT22;10147;16.402;102.848;2023-05-07T00:08:22;31.90;99.90
19972;DHT22;10147;16.402;102.848;2023-05-07T00:10:52;31.90;99.90
19972;DHT22;10147;16.402;102.848;2023-05-07T00:13:22;31.90;99.90
19972;DHT22;10147;16.402;102.848;2023-05-07T00:15:52;32.10;99.90
19972;DHT22;10147;16.402;102.848;2023-05-07T00:18:23;32.10;99.90
19972;DHT22;10147;16.402;102.848;2023-05-07T00:20:53;32.20;99.90
19972;DHT22;10147;16.402;102.848;2023-05-07T00:23:23;32.10;99.90
19972;DHT22;10147;16.402;102.848;2023-05-07T00:25:53;32.20;99.90
19972;DHT22;10147;16.402;102.848;2023-05-07T00:28:23;32.20;99.90
19972;DHT22;10147;16.402;102.848;2023-05-07T00:30:53;32.30;99.90
19972;DHT22;10147;16.402;102.848;2023-05-07T00:33:23;32.30;99.90
19972;DHT22;10147;16.402;102.848;2023-05-07T00:35:53;32.30;99.90
19972;DHT22;10147;16.402;102.848;2023-05-07T00:38:26;32.30;99.90
19972;DHT22;10147;16.402;102.848;2023-05-07T00:40:56;32.30;99.90
19972;DHT22;10147;16.402;102.848;2023-05-07T00:43:26;32.40;99.90
19972;DHT22;10147;16.402;102.848;2023-05-07T00:45:56;32.50;99.90
19972;DHT22;10147;16.402;102.848;2023-05-07T00:48:27;32.50;99.90
19972;DHT22;10147;16.402;102.848;2023-05-07T00:50:57;32.60;99.90
19972;DHT22;10147;16.402;102.848;2023-05-07T00:53:27;32.70;99.90
19972;DHT22;10147;16.402;102.848;2023-05-07T00:55:57;32.80;99.90
19972;DHT22;10147;16.402;102.848;2023-05-07T00:58:27;32.80;99.90
19972;DHT22;10147;16.402;102.848;2023-05-07T01:00:57;33.00;99.90
19972;DHT22;10147;16.402;102.848;2023-05-07T01:03:27;33.10;99.90
19972;DHT22;10147;16.402;102.848;2023-05-07T01:06:00;33.20;99.90
19972;DHT22;10147;16.402;102.848;2023-05-07T01:08:31;33.20;99.90
19972;DHT22;10147;16.402;102.848;2023-05-07T01:11:02;33.30;99.90
19972;DHT22;10147;16.402;102.848;2023-05-07T01:13:34;33.40;99.90
19972;DHT22;10147;16.402;102.848;2023-05-07T01:16:05;33.50;99.90
19972;DHT22;10147;16.402;102.848;2023-05-07T01:18:36;33.50;99.90
19972;DHT22;10147;16.402;102.848;2023-05-07T01:21:07;33.60;99.90
19972;DHT22;10147;16.402;102.848;2023-05-07T01:23:41;33.70;99.90
19972;DHT22;10147;16.402;102.848;2023-05-07T01:26:15;33.80;99.90
19972;DHT22;10147;16.402;102.848;2023-05-07T01:28:46;33.90;99.90
19972;DHT22;10147;16.402;102.848;2023-05-07T01:31:17;34.00;99.90
19972;DHT22;10147;16.402;102.848;2023-05-07T01:33:48;34.00;99.90
19972;DHT22;10147;16.402;102.848;2023-05-07T01:36:20;34.20;99.90
19972;DHT22;10147;16.402;102.848;2023-05-07T01:38:52;34.30;99.90
19972;DHT22;10147;16.402;102.848;2023-05-07T01:41:22;34.30;99.90
19972;DHT22;10147;16.402;102.848;2023-05-07T01:43:54;34.40;99.90
19972;DHT22;10147;16.402;102.848;2023-05-07T01:46:26;34.50;99.90
19972;DHT22;10147;16.402;102.848;2023-05-07T01:48:57;34.50;99.90
19972;DHT22;10147;16.402;102.848;2023-05-07T01:51:27;34.60;99.90
19972;DHT22;10147;16.402;102.848;2023-05-07T01:53:58;34.60;99.90
19972;DHT22;10147;16.402;102.848;2023-05-07T01:56:28;34.70;99.90
19972;DHT22;10147;16.402;102.848;2023-05-07T01:58:58;34.80;99.90
19972;DHT22;10147;16.402;102.848;2023-05-07T02:01:28;34.80;99.90
19972;DHT22;10147;16.402;102.848;2023-05-07T02:03:59;35.00;99.90
19972;DHT22;10147;16.402;102.848;2023-05-07T02:06:30;35.10;99.90
19972;DHT22;10147;16.402;102.848;2023-05-07T02:09:05;35.20;99.90
19972;DHT22;10147;16.402;102.848;2023-05-07T02:11:35;35.30;99.90
19972;DHT22;10147;16.402;102.848;2023-05-07T02:14:05;35.30;99.90
19972;DHT22;10147;16.402;102.848;2023-05-07T02:16:35;35.40;99.90
19972;DHT22;10147;16.402;102.848;2023-05-07T02:19:05;35.60;99.90
19972;DHT22;10147;16.402;102.848;2023-05-07T02:21:36;35.50;99.90
19972;DHT22;10147;16.402;102.848;2023-05-07T02:24:06;35.60;99.90
19972;DHT22;10147;16.402;102.848;2023-05-07T02:26:42;35.80;99.90
19972;DHT22;10147;16.402;102.848;2023-05-07T02:29:13;35.80;99.90
19972;DHT22;10147;16.402;102.848;2023-05-07T02:31:43;35.90;99.90
19972;DHT22;10147;16.402;102.848;2023-05-07T02:34:13;36.00;99.90
19972;DHT22;10147;16.402;102.848;2023-05-07T02:36:46;35.90;99.90
19972;DHT22;10147;16.402;102.848;2023-05-07T02:39:20;36.00;99.90
19972;DHT22;10147;16.402;102.848;2023-05-07T02:41:50;36.00;99.90
19972;DHT22;10147;16.402;102.848;2023-05-07T02:44:20;36.20;99.90
19972;DHT22;10147;16.402;102.848;2023-05-07T02:46:51;36.40;99.90
19972;DHT22;10147;16.402;102.848;2023-05-07T02:49:22;36.30;99.90
19972;DHT22;10147;16.402;102.848;2023-05-07T02:51:52;36.30;99.90
19972;DHT22;10147;16.402;102.848;2023-05-07T02:54:24;36.50;99.90
19972;DHT22;10147;16.402;102.848;2023-05-07T02:56:57;36.60;99.90
19972;DHT22;10147;16.402;102.848;2023-05-07T02:59:27;36.60;99.90
19972;DHT22;10147;16.402;102.848;2023-05-07T03:01:58;36.60;99.90
19972;DHT22;10147;16.402;102.848;2023-05-07T03:04:28;36.70;99.90
19972;DHT22;10147;16.402;102.848;2023-05-07T03:06:58;36.80;99.90
19972;DHT22;10147;16.402;102.848;2023-05-07T03:09:28;36.90;99.90
19972;DHT22;10147;16.402;102.848;2023-05-07T03:11:58;36.90;99.90
19972;DHT22;10147;16.402;102.848;2023-05-07T03:14:28;37.10;99.90
19972;DHT22;10147;16.402;102.848;2023-05-07T03:16:59;37.30;99.90
19972;DHT22;10147;16.402;102.848;2023-05-07T03:19:29;37.20;99.90
19972;DHT22;10147;16.402;102.848;2023-05-07T03:22:00;37.30;99.90
19972;DHT22;10147;16.402;102.848;2023-05-07T03:24:30;37.40;99.90
19972;DHT22;10147;16.402;102.848;2023-05-07T03:27:00;37.40;99.90
19972;DHT22;10147;16.402;102.848;2023-05-07T03:29:30;37.50;99.90
19972;DHT22;10147;16.402;102.848;2023-05-07T03:32:00;37.70;99.90
19972;DHT22;10147;16.402;102.848;2023-05-07T03:34:30;37.80;99.90
19972;DHT22;10147;16.402;102.848;2023-05-07T03:37:00;37.80;99.90
19972;DHT22;10147;16.402;102.848;2023-05-07T03:39:30;37.90;99.90
19972;DHT22;10147;16.402;102.848;2023-05-07T03:42:01;38.10;99.90
19972;DHT22;10147;16.402;102.848;2023-05-07T03:44:36;38.10;99.90
19972;DHT22;10147;16.402;102.848;2023-05-07T03:47:06;38.40;99.90
19972;DHT22;10147;16.402;102.848;2023-05-07T03:49:37;38.30;99.90
19972;DHT22;10147;16.402;102.848;2023-05-07T03:52:08;38.30;99.90
19972;DHT22;10147;16.402;102.848;2023-05-07T03:54:40;38.40;99.90
19972;DHT22;10147;16.402;102.848;2023-05-07T03:57:12;38.40;99.90
19972;DHT22;10147;16.402;102.848;2023-05-07T03:59:42;38.60;99.90
19972;DHT22;10147;16.402;102.848;2023-05-07T04:02:12;38.70;99.90
19972;DHT22;10147;16.402;102.848;2023-05-07T04:04:42;38.70;99.90
19972;DHT22;10147;16.402;102.848;2023-05-07T04:07:13;38.70;99.70
19972;DHT22;10147;16.402;102.848;2023-05-07T04:09:48;38.60;99.90
19972;DHT22;10147;16.402;102.848;2023-05-07T04:12:19;38.90;99.90
19972;DHT22;10147;16.402;102.848;2023-05-07T04:14:49;38.90;99.10
19972;DHT22;10147;16.402;102.848;2023-05-07T04:17:19;38.70;98.90
19972;DHT22;10147;16.402;102.848;2023-05-07T04:19:49;38.60;98.80
19972;DHT22;10147;16.402;102.848;2023-05-07T04:22:20;38.90;99.60
19972;DHT22;10147;16.402;102.848;2023-05-07T04:24:49;39.00;98.90
19972;DHT22;10147;16.402;102.848;2023-05-07T04:27:20;39.20;99.30
19972;DHT22;10147;16.402;102.848;2023-05-07T04:29:51;39.40;98.30
19972;DHT22;10147;16.402;102.848;2023-05-07T04:32:21;39.50;98.50
19972;DHT22;10147;16.402;102.848;2023-05-07T04:34:52;39.40;96.30
19972;DHT22;10147;16.402;102.848;2023-05-07T04:37:22;39.30;96.20
19972;DHT22;10147;16.402;102.848;2023-05-07T04:39:53;39.40;96.10
19972;DHT22;10147;16.402;102.848;2023-05-07T04:42:24;39.50;95.10
19972;DHT22;10147;16.402;102.848;2023-05-07T04:44:55;39.50;95.90
19972;DHT22;10147;16.402;102.848;2023-05-07T04:47:28;39.60;95.20
19972;DHT22;10147;16.402;102.848;2023-05-07T04:50:00;39.80;94.60
19972;DHT22;10147;16.402;102.848;2023-05-07T04:52:30;39.90;94.60
19972;DHT22;10147;16.402;102.848;2023-05-07T04:55:01;40.10;93.30
19972;DHT22;10147;16.402;102.848;2023-05-07T04:57:35;40.00;92.70
19972;DHT22;10147;16.402;102.848;2023-05-07T05:00:08;39.90;90.90
19972;DHT22;10147;16.402;102.848;2023-05-07T05:02:40;39.80;91.00
19972;DHT22;10147;16.402;102.848;2023-05-07T05:05:13;39.90;91.90
19972;DHT22;10147;16.402;102.848;2023-05-07T05:07:49;40.20;92.10
19972;DHT22;10147;16.402;102.848;2023-05-07T05:10:22;40.00;92.50
19972;DHT22;10147;16.402;102.848;2023-05-07T05:12:52;40.10;92.00
19972;DHT22;10147;16.402;102.848;2023-05-07T05:15:23;40.00;91.90
19972;DHT22;10147;16.402;102.848;2023-05-07T05:17:54;40.30;91.80
19972;DHT22;10147;16.402;102.848;2023-05-07T05:20:24;40.10;91.20
19972;DHT22;10147;16.402;102.848;2023-05-07T05:22:55;40.30;91.30
19972;DHT22;10147;16.402;102.848;2023-05-07T05:25:25;40.30;90.20
19972;DHT22;10147;16.402;102.848;2023-05-07T05:27:56;40.50;90.20
19972;DHT22;10147;16.402;102.848;2023-05-07T05:30:26;40.50;89.20
19972;DHT22;10147;16.402;102.848;2023-05-07T05:32:56;40.60;89.90
19972;DHT22;10147;16.402;102.848;2023-05-07T05:35:27;40.90;90.20
19972;DHT22;10147;16.402;102.848;2023-05-07T05:37:59;41.10;88.20
19972;DHT22;10147;16.402;102.848;2023-05-07T05:40:29;40.80;89.40
19972;DHT22;10147;16.402;102.848;2023-05-07T05:42:59;41.00;90.20
19972;DHT22;10147;16.402;102.848;2023-05-07T05:45:30;41.20;87.40
19972;DHT22;10147;16.402;102.848;2023-05-07T05:48:01;41.00;89.90
19972;DHT22;10147;16.402;102.848;2023-05-07T05:50:31;40.80;87.80
19972;DHT22;10147;16.402;102.848;2023-05-07T05:53:02;40.50;88.80
19972;DHT22;10147;16.402;102.848;2023-05-07T05:55:33;40.70;89.20
19972;DHT22;10147;16.402;102.848;2023-05-07T05:58:04;41.10;86.90
19972;DHT22;10147;16.402;102.848;2023-05-07T06:00:39;40.90;88.30
19972;DHT22;10147;16.402;102.848;2023-05-07T06:03:10;40.70;89.50
19972;DHT22;10147;16.402;102.848;2023-05-07T06:05:42;40.50;90.40
19972;DHT22;10147;16.402;102.848;2023-05-07T06:08:14;40.10;90.40
19972;DHT22;10147;16.402;102.848;2023-05-07T06:10:44;40.10;91.60
19972;DHT22;10147;16.402;102.848;2023-05-07T06:13:14;40.00;90.50
19972;DHT22;10147;16.402;102.848;2023-05-07T06:15:45;39.90;91.20
19972;DHT22;10147;16.402;102.848;2023-05-07T06:18:15;39.80;90.90
19972;DHT22;10147;16.402;102.848;2023-05-07T06:20:45;40.10;91.10
19972;DHT22;10147;16.402;102.848;2023-05-07T06:23:24;40.40;91.20
19972;DHT22;10147;16.402;102.848;2023-05-07T06:25:54;40.80;91.70
19972;DHT22;10147;16.402;102.848;2023-05-07T06:28:29;41.00;91.50
19972;DHT22;10147;16.402;102.848;2023-05-07T06:31:14;41.20;90.60
19972;DHT22;10147;16.402;102.848;2023-05-07T06:33:54;41.50;90.90
19972;DHT22;10147;16.402;102.848;2023-05-07T06:36:30;41.10;89.60
19972;DHT22;10147;16.402;102.848;2023-05-07T06:39:08;40.80;90.50
19972;DHT22;10147;16.402;102.848;2023-05-07T06:41:39;40.60;90.50
19972;DHT22;10147;16.402;102.848;2023-05-07T06:44:17;40.40;90.10
19972;DHT22;10147;16.402;102.848;2023-05-07T06:46:58;40.20;90.10
19972;DHT22;10147;16.402;102.848;2023-05-07T06:49:28;40.40;90.30
19972;DHT22;10147;16.402;102.848;2023-05-07T06:51:58;40.60;90.70
19972;DHT22;10147;16.402;102.848;2023-05-07T06:54:29;40.60;90.20
19972;DHT22;10147;16.402;102.848;2023-05-07T06:56:59;40.80;89.90
19972;DHT22;10147;16.402;102.848;2023-05-07T06:59:31;41.10;90.30
19972;DHT22;10147;16.402;102.848;2023-05-07T07:02:01;41.20;88.90
19972;DHT22;10147;16.402;102.848;2023-05-07T07:04:31;41.10;87.60
19972;DHT22;10147;16.402;102.848;2023-05-07T07:07:05;41.20;88.40
19972;DHT22;10147;16.402;102.848;2023-05-07T07:09:36;41.40;87.00
19972;DHT22;10147;16.402;102.848;2023-05-07T07:12:10;41.40;85.00
19972;DHT22;10147;16.402;102.848;2023-05-07T07:14:42;41.50;85.70
19972;DHT22;10147;16.402;102.848;2023-05-07T07:17:13;41.40;86.90
19972;DHT22;10147;16.402;102.848;2023-05-07T07:19:44;41.50;85.10
19972;DHT22;10147;16.402;102.848;2023-05-07T07:22:13;41.60;86.40
19972;DHT22;10147;16.402;102.848;2023-05-07T07:24:44;41.30;86.10
19972;DHT22;10147;16.402;102.848;2023-05-07T07:27:18;41.40;85.10
19972;DHT22;10147;16.402;102.848;2023-05-07T07:29:51;41.20;82.90
19972;DHT22;10147;16.402;102.848;2023-05-07T07:32:26;41.50;84.80
19972;DHT22;10147;16.402;102.848;2023-05-07T07:34:56;41.50;82.00
19972;DHT22;10147;16.402;102.848;2023-05-07T07:37:30;41.60;81.40
19972;DHT22;10147;16.402;102.848;2023-05-07T07:40:00;41.60;83.10
19972;DHT22;10147;16.402;102.848;2023-05-07T07:42:32;41.80;88.20
19972;DHT22;10147;16.402;102.848;2023-05-07T07:45:03;41.90;81.90
19972;DHT22;10147;16.402;102.848;2023-05-07T07:47:36;41.60;82.60
19972;DHT22;10147;16.402;102.848;2023-05-07T07:50:07;41.30;80.70
19972;DHT22;10147;16.402;102.848;2023-05-07T07:52:42;41.60;81.80
19972;DHT22;10147;16.402;102.848;2023-05-07T07:55:15;41.50;81.00
19972;DHT22;10147;16.402;102.848;2023-05-07T07:57:52;41.70;81.40
19972;DHT22;10147;16.402;102.848;2023-05-07T08:00:24;41.60;80.60
19972;DHT22;10147;16.402;102.848;2023-05-07T08:02:56;41.60;80.30
19972;DHT22;10147;16.402;102.848;2023-05-07T08:05:31;41.80;81.50
19972;DHT22;10147;16.402;102.848;2023-05-07T08:08:04;41.90;80.20
19972;DHT22;10147;16.402;102.848;2023-05-07T08:10:37;41.80;80.20
19972;DHT22;10147;16.402;102.848;2023-05-07T08:13:17;41.70;79.80
19972;DHT22;10147;16.402;102.848;2023-05-07T08:15:50;41.90;80.70
19972;DHT22;10147;16.402;102.848;2023-05-07T08:18:20;41.90;78.70
19972;DHT22;10147;16.402;102.848;2023-05-07T08:20:50;41.70;78.80
19972;DHT22;10147;16.402;102.848;2023-05-07T08:23:23;41.60;78.50
19972;DHT22;10147;16.402;102.848;2023-05-07T08:25:54;41.80;77.60
19972;DHT22;10147;16.402;102.848;2023-05-07T08:28:23;41.50;76.80
19972;DHT22;10147;16.402;102.848;2023-05-07T08:30:54;41.60;78.90
19972;DHT22;10147;16.402;102.848;2023-05-07T08:33:27;41.60;74.80
19972;DHT22;10147;16.402;102.848;2023-05-07T08:35:57;41.50;77.30
19972;DHT22;10147;16.402;102.848;2023-05-07T08:38:27;41.60;77.30
19972;DHT22;10147;16.402;102.848;2023-05-07T08:40:58;41.60;76.50
19972;DHT22;10147;16.402;102.848;2023-05-07T08:43:32;41.80;76.40
19972;DHT22;10147;16.402;102.848;2023-05-07T08:46:03;41.80;73.90
19972;DHT22;10147;16.402;102.848;2023-05-07T08:48:40;41.70;74.40
19972;DHT22;10147;16.402;102.848;2023-05-07T08:51:16;41.60;74.30
19972;DHT22;10147;16.402;102.848;2023-05-07T08:53:48;41.60;74.80
19972;DHT22;10147;16.402;102.848;2023-05-07T08:56:24;41.50;73.90
19972;DHT22;10147;16.402;102.848;2023-05-07T08:58:55;41.60;73.70
19972;DHT22;10147;16.402;102.848;2023-05-07T09:01:29;41.60;73.40
19972;DHT22;10147;16.402;102.848;2023-05-07T09:04:00;41.60;72.90
19972;DHT22;10147;16.402;102.848;2023-05-07T09:06:34;41.50;72.50
19972;DHT22;10147;16.402;102.848;2023-05-07T09:09:05;41.60;71.30
19972;DHT22;10147;16.402;102.848;2023-05-07T09:11:34;41.70;71.00
19972;DHT22;10147;16.402;102.848;2023-05-07T09:14:04;41.50;71.60
19972;DHT22;10147;16.402;102.848;2023-05-07T09:16:40;41.50;71.10
19972;DHT22;10147;16.402;102.848;2023-05-07T09:19:10;41.60;72.10
19972;DHT22;10147;16.402;102.848;2023-05-07T09:21:44;41.50;70.20
19972;DHT22;10147;16.402;102.848;2023-05-07T09:24:16;41.50;70.40
19972;DHT22;10147;16.402;102.848;2023-05-07T09:26:46;41.50;68.90
19972;DHT22;10147;16.402;102.848;2023-05-07T09:29:16;41.60;68.70
19972;DHT22;10147;16.402;102.848;2023-05-07T09:31:47;41.60;68.90
19972;DHT22;10147;16.402;102.848;2023-05-07T09:34:18;41.50;69.00
19972;DHT22;10147;16.402;102.848;2023-05-07T09:36:48;41.50;68.90
19972;DHT22;10147;16.402;102.848;2023-05-07T09:39:19;41.40;69.70
19972;DHT22;10147;16.402;102.848;2023-05-07T09:41:49;41.30;68.90
19972;DHT22;10147;16.402;102.848;2023-05-07T09:44:31;41.20;68.60
19972;DHT22;10147;16.402;102.848;2023-05-07T09:47:05;41.00;69.60
19972;DHT22;10147;16.402;102.848;2023-05-07T09:49:43;41.00;69.40
19972;DHT22;10147;16.402;102.848;2023-05-07T09:52:19;41.00;70.30
19972;DHT22;10147;16.402;102.848;2023-05-07T09:54:53;41.00;70.60
19972;DHT22;10147;16.402;102.848;2023-05-07T09:57:27;40.80;70.70
19972;DHT22;10147;16.402;102.848;2023-05-07T10:00:03;40.60;70.50
19972;DHT22;10147;16.402;102.848;2023-05-07T10:02:50;40.50;71.00
19972;DHT22;10147;16.402;102.848;2023-05-07T10:05:30;40.50;71.30
19972;DHT22;10147;16.402;102.848;2023-05-07T10:08:01;40.50;71.10
19972;DHT22;10147;16.402;102.848;2023-05-07T10:10:37;40.50;71.00
19972;DHT22;10147;16.402;102.848;2023-05-07T10:13:10;40.40;72.20
19972;DHT22;10147;16.402;102.848;2023-05-07T10:15:48;40.30;71.60
19972;DHT22;10147;16.402;102.848;2023-05-07T10:18:21;40.30;71.70
19972;DHT22;10147;16.402;102.848;2023-05-07T10:21:14;40.20;71.90
19972;DHT22;10147;16.402;102.848;2023-05-07T10:23:53;40.20;71.40
19972;DHT22;10147;16.402;102.848;2023-05-07T10:26:30;40.10;71.00
19972;DHT22;10147;16.402;102.848;2023-05-07T10:29:05;40.00;71.60
19972;DHT22;10147;16.402;102.848;2023-05-07T10:32:04;39.80;72.00
19972;DHT22;10147;16.402;102.848;2023-05-07T10:34:42;39.80;72.50
19972;DHT22;10147;16.402;102.848;2023-05-07T10:37:13;39.70;73.10
19972;DHT22;10147;16.402;102.848;2023-05-07T10:39:44;39.70;73.30
19972;DHT22;10147;16.402;102.848;2023-05-07T10:42:16;39.80;73.90
19972;DHT22;10147;16.402;102.848;2023-05-07T10:44:51;39.70;74.40
19972;DHT22;10147;16.402;102.848;2023-05-07T10:47:25;39.60;74.90
19972;DHT22;10147;16.402;102.848;2023-05-07T10:50:21;39.50;75.10
19972;DHT22;10147;16.402;102.848;2023-05-07T10:53:20;39.40;75.60
19972;DHT22;10147;16.402;102.848;2023-05-07T10:56:31;39.40;76.30
19972;DHT22;10147;16.402;102.848;2023-05-07T10:59:30;39.40;76.90
19972;DHT22;10147;16.402;102.848;2023-05-07T11:02:12;39.30;77.00
19972;DHT22;10147;16.402;102.848;2023-05-07T11:05:22;39.20;77.30
19972;DHT22;10147;16.402;102.848;2023-05-07T11:08:12;39.20;77.60
19972;DHT22;10147;16.402;102.848;2023-05-07T11:11:02;39.10;78.00
19972;DHT22;10147;16.402;102.848;2023-05-07T11:13:48;39.10;78.80
19972;DHT22;10147;16.402;102.848;2023-05-07T11:16:41;38.90;78.30
19972;DHT22;10147;16.402;102.848;2023-05-07T11:19:53;38.90;79.30
19972;DHT22;10147;16.402;102.848;2023-05-07T11:22:42;38.80;79.70
19972;DHT22;10147;16.402;102.848;2023-05-07T11:25:19;38.70;80.00
19972;DHT22;10147;16.402;102.848;2023-05-07T11:27:56;38.70;80.70
19972;DHT22;10147;16.402;102.848;2023-05-07T11:30:28;38.60;81.00
19972;DHT22;10147;16.402;102.848;2023-05-07T11:32:59;38.50;81.20
19972;DHT22;10147;16.402;102.848;2023-05-07T11:35:29;38.40;81.50
19972;DHT22;10147;16.402;102.848;2023-05-07T11:38:06;38.40;82.10
19972;DHT22;10147;16.402;102.848;2023-05-07T11:40:49;38.20;82.10
19972;DHT22;10147;16.402;102.848;2023-05-07T11:43:20;38.10;82.40
19972;DHT22;10147;16.402;102.848;2023-05-07T11:45:51;37.90;83.20
19972;DHT22;10147;16.402;102.848;2023-05-07T11:48:21;37.70;83.90
19972;DHT22;10147;16.402;102.848;2023-05-07T11:50:54;37.60;84.60
19972;DHT22;10147;16.402;102.848;2023-05-07T11:53:32;37.60;85.30
19972;DHT22;10147;16.402;102.848;2023-05-07T11:56:09;37.40;85.90
19972;DHT22;10147;16.402;102.848;2023-05-07T11:58:41;37.50;86.50
19972;DHT22;10147;16.402;102.848;2023-05-07T12:01:13;37.30;86.80
19972;DHT22;10147;16.402;102.848;2023-05-07T12:03:44;37.30;87.60
19972;DHT22;10147;16.402;102.848;2023-05-07T12:06:16;37.30;87.90
19972;DHT22;10147;16.402;102.848;2023-05-07T12:08:47;37.20;88.30
19972;DHT22;10147;16.402;102.848;2023-05-07T12:11:25;37.30;88.70
19972;DHT22;10147;16.402;102.848;2023-05-07T12:13:55;37.10;88.80
19972;DHT22;10147;16.402;102.848;2023-05-07T12:16:27;37.10;89.20
19972;DHT22;10147;16.402;102.848;2023-05-07T12:18:58;36.90;89.90
19972;DHT22;10147;16.402;102.848;2023-05-07T12:21:28;37.00;90.10
19972;DHT22;10147;16.402;102.848;2023-05-07T12:24:02;37.00;90.30
19972;DHT22;10147;16.402;102.848;2023-05-07T12:26:32;36.90;90.40
19972;DHT22;10147;16.402;102.848;2023-05-07T12:29:07;36.90;90.60
19972;DHT22;10147;16.402;102.848;2023-05-07T12:31:41;36.90;90.80
19972;DHT22;10147;16.402;102.848;2023-05-07T12:34:11;36.80;90.90
19972;DHT22;10147;16.402;102.848;2023-05-07T12:36:41;36.70;91.60
19972;DHT22;10147;16.402;102.848;2023-05-07T12:39:14;36.70;91.50
19972;DHT22;10147;16.402;102.848;2023-05-07T12:41:58;36.60;91.80
19972;DHT22;10147;16.402;102.848;2023-05-07T12:44:33;36.50;92.10
19972;DHT22;10147;16.402;102.848;2023-05-07T12:47:03;36.40;92.20
19972;DHT22;10147;16.402;102.848;2023-05-07T12:49:35;36.30;92.50
19972;DHT22;10147;16.402;102.848;2023-05-07T12:52:08;36.30;92.70
19972;DHT22;10147;16.402;102.848;2023-05-07T12:54:40;36.40;92.90
19972;DHT22;10147;16.402;102.848;2023-05-07T12:57:10;36.30;93.00
19972;DHT22;10147;16.402;102.848;2023-05-07T12:59:41;36.30;93.10
19972;DHT22;10147;16.402;102.848;2023-05-07T13:02:11;36.20;93.40
19972;DHT22;10147;16.402;102.848;2023-05-07T13:04:41;36.30;93.30
19972;DHT22;10147;16.402;102.848;2023-05-07T13:07:11;36.30;93.50
19972;DHT22;10147;16.402;102.848;2023-05-07T13:09:41;36.30;93.90
19972;DHT22;10147;16.402;102.848;2023-05-07T13:12:11;36.10;94.20
19972;DHT22;10147;16.402;102.848;2023-05-07T13:14:41;36.20;94.30
19972;DHT22;10147;16.402;102.848;2023-05-07T13:17:11;36.20;94.60
19972;DHT22;10147;16.402;102.848;2023-05-07T13:19:40;36.10;94.70
19972;DHT22;10147;16.402;102.848;2023-05-07T13:22:10;36.20;95.00
19972;DHT22;10147;16.402;102.848;2023-05-07T13:24:40;36.10;95.10
19972;DHT22;10147;16.402;102.848;2023-05-07T13:27:12;36.10;95.20
19972;DHT22;10147;16.402;102.848;2023-05-07T13:29:43;35.90;95.20
19972;DHT22;10147;16.402;102.848;2023-05-07T13:32:13;35.90;95.60
19972;DHT22;10147;16.402;102.848;2023-05-07T13:34:43;35.90;95.70
19972;DHT22;10147;16.402;102.848;2023-05-07T13:37:13;35.90;96.10
19972;DHT22;10147;16.402;102.848;2023-05-07T13:39:43;35.90;96.40
19972;DHT22;10147;16.402;102.848;2023-05-07T13:42:13;35.80;96.40
19972;DHT22;10147;16.402;102.848;2023-05-07T13:44:43;35.80;96.80
19972;DHT22;10147;16.402;102.848;2023-05-07T13:47:16;35.70;97.00
19972;DHT22;10147;16.402;102.848;2023-05-07T13:49:46;35.70;97.00
19972;DHT22;10147;16.402;102.848;2023-05-07T13:52:19;35.70;97.50
19972;DHT22;10147;16.402;102.848;2023-05-07T13:54:49;35.70;97.60
19972;DHT22;10147;16.402;102.848;2023-05-07T13:57:21;35.60;98.00
19972;DHT22;10147;16.402;102.848;2023-05-07T13:59:51;35.60;98.00
19972;DHT22;10147;16.402;102.848;2023-05-07T14:02:21;35.60;98.80
19972;DHT22;10147;16.402;102.848;2023-05-07T14:04:50;35.50;98.60
19972;DHT22;10147;16.402;102.848;2023-05-07T14:07:20;35.50;98.60
19972;DHT22;10147;16.402;102.848;2023-05-07T14:09:50;35.60;98.70
19972;DHT22;10147;16.402;102.848;2023-05-07T14:12:20;35.50;99.00
19972;DHT22;10147;16.402;102.848;2023-05-07T14:14:52;35.40;99.30
19972;DHT22;10147;16.402;102.848;2023-05-07T14:17:23;35.40;99.80
19972;DHT22;10147;16.402;102.848;2023-05-07T14:19:54;35.30;99.80
19972;DHT22;10147;16.402;102.848;2023-05-07T14:22:24;35.20;99.90
19972;DHT22;10147;16.402;102.848;2023-05-07T14:24:54;35.10;99.90
19972;DHT22;10147;16.402;102.848;2023-05-07T14:27:34;35.00;99.90
19972;DHT22;10147;16.402;102.848;2023-05-07T14:30:05;34.90;99.90
19972;DHT22;10147;16.402;102.848;2023-05-07T14:32:35;35.00;99.90
19972;DHT22;10147;16.402;102.848;2023-05-07T14:35:05;35.00;99.90
19972;DHT22;10147;16.402;102.848;2023-05-07T14:37:35;35.00;99.90
19972;DHT22;10147;16.402;102.848;2023-05-07T14:40:06;34.90;99.90
19972;DHT22;10147;16.402;102.848;2023-05-07T14:42:37;35.00;99.90
19972;DHT22;10147;16.402;102.848;2023-05-07T14:45:13;35.00;99.90
19972;DHT22;10147;16.402;102.848;2023-05-07T14:47:43;35.10;99.90
19972;DHT22;10147;16.402;102.848;2023-05-07T14:50:12;35.00;99.90
19972;DHT22;10147;16.402;102.848;2023-05-07T14:52:42;34.90;99.90
19972;DHT22;10147;16.402;102.848;2023-05-07T14:55:12;35.00;99.90
19972;DHT22;10147;16.402;102.848;2023-05-07T14:57:42;34.90;99.90
19972;DHT22;10147;16.402;102.848;2023-05-07T15:00:12;34.90;99.90
19972;DHT22;10147;16.402;102.848;2023-05-07T15:02:42;34.90;99.90
19972;DHT22;10147;16.402;102.848;2023-05-07T15:05:15;34.80;99.90
19972;DHT22;10147;16.402;102.848;2023-05-07T15:07:46;34.80;99.90
19972;DHT22;10147;16.402;102.848;2023-05-07T15:10:17;34.90;99.90
19972;DHT22;10147;16.402;102.848;2023-05-07T15:12:47;34.90;99.90
19972;DHT22;10147;16.402;102.848;2023-05-07T15:15:17;34.80;99.90
19972;DHT22;10147;16.402;102.848;2023-05-07T15:17:47;34.80;99.90
19972;DHT22;10147;16.402;102.848;2023-05-07T15:20:17;34.70;99.90
19972;DHT22;10147;16.402;102.848;2023-05-07T15:22:47;34.70;99.90
19972;DHT22;10147;16.402;102.848;2023-05-07T15:25:17;34.70;99.90
19972;DHT22;10147;16.402;102.848;2023-05-07T15:27:47;34.80;99.90
19972;DHT22;10147;16.402;102.848;2023-05-07T15:30:18;34.70;99.90
19972;DHT22;10147;16.402;102.848;2023-05-07T15:32:49;34.70;99.90
19972;DHT22;10147;16.402;102.848;2023-05-07T15:35:19;34.70;99.90